sensor_id;sensor_type;location;lat;lon;timestamp;P1;durP1;ratioP1;P2;durP2;ratioP2
28910;SDS011;16028;42.642;23.310;2022-12-29T00:01:27;45.08;;;26.77;;
28910;SDS011;16028;42.642;23.310;2022-12-29T00:03:54;47.58;;;28.10;;
28910;SDS011;16028;42.642;23.310;2022-12-29T00:06:21;48.92;;;29.30;;
28910;SDS011;16028;42.642;23.310;2022-12-29T00:08:48;48.55;;;28.80;;
28910;SDS011;16028;42.642;23.310;2022-12-29T00:11:16;49.28;;;29.23;;
28910;SDS011;16028;42.642;23.310;2022-12-29T00:13:44;51.05;;;29.55;;
28910;SDS011;16028;42.642;23.310;2022-12-29T00:16:30;49.63;;;29.17;;
28910;SDS011;16028;42.642;23.310;2022-12-29T00:18:57;55.75;;;31.05;;
28910;SDS011;16028;42.642;23.310;2022-12-29T00:21:24;52.58;;;30.17;;
28910;SDS011;16028;42.642;23.310;2022-12-29T00:24:11;46.58;;;28.33;;
28910;SDS011;16028;42.642;23.310;2022-12-29T00:26:58;57.17;;;31.55;;
28910;SDS011;16028;42.642;23.310;2022-12-29T00:29:53;54.83;;;30.80;;
28910;SDS011;16028;42.642;23.310;2022-12-29T00:32:39;57.22;;;29.75;;
28910;SDS011;16028;42.642;23.310;2022-12-29T00:35:24;50.50;;;29.60;;
28910;SDS011;16028;42.642;23.310;2022-12-29T00:37:54;54.83;;;29.88;;
28910;SDS011;16028;42.642;23.310;2022-12-29T00:40:40;47.63;;;27.15;;
28910;SDS011;16028;42.642;23.310;2022-12-29T00:43:25;52.72;;;29.98;;
28910;SDS011;16028;42.642;23.310;2022-12-29T00:46:09;53.60;;;28.83;;
28910;SDS011;16028;42.642;23.310;2022-12-29T00:48:37;49.70;;;27.63;;
28910;SDS011;16028;42.642;23.310;2022-12-29T00:51:21;48.58;;;27.05;;
28910;SDS011;16028;42.642;23.310;2022-12-29T00:53:51;47.40;;;26.33;;
28910;SDS011;16028;42.642;23.310;2022-12-29T00:56:18;50.42;;;25.85;;
28910;SDS011;16028;42.642;23.310;2022-12-29T00:58:44;42.67;;;25.17;;
28910;SDS011;16028;42.642;23.310;2022-12-29T01:01:11;43.83;;;24.23;;
28910;SDS011;16028;42.642;23.310;2022-12-29T01:03:39;44.80;;;26.88;;
28910;SDS011;16028;42.642;23.310;2022-12-29T01:06:09;49.67;;;26.48;;
28910;SDS011;16028;42.642;23.310;2022-12-29T01:08:37;40.60;;;24.88;;
28910;SDS011;16028;42.642;23.310;2022-12-29T01:11:04;46.42;;;26.88;;
28910;SDS011;16028;42.642;23.310;2022-12-29T01:13:32;39.40;;;25.17;;
28910;SDS011;16028;42.642;23.310;2022-12-29T01:15:58;45.95;;;26.13;;
28910;SDS011;16028;42.642;23.310;2022-12-29T01:18:26;47.80;;;27.10;;
28910;SDS011;16028;42.642;23.310;2022-12-29T01:20:59;59.22;;;30.65;;
28910;SDS011;16028;42.642;23.310;2022-12-29T01:23:26;53.28;;;29.85;;
28910;SDS011;16028;42.642;23.310;2022-12-29T01:25:53;51.20;;;30.10;;
28910;SDS011;16028;42.642;23.310;2022-12-29T01:28:20;48.95;;;29.27;;
28910;SDS011;16028;42.642;23.310;2022-12-29T01:30:47;51.85;;;30.27;;
28910;SDS011;16028;42.642;23.310;2022-12-29T01:33:14;55.55;;;31.08;;
28910;SDS011;16028;42.642;23.310;2022-12-29T01:35:41;50.05;;;30.67;;
28910;SDS011;16028;42.642;23.310;2022-12-29T01:38:09;57.03;;;33.33;;
28910;SDS011;16028;42.642;23.310;2022-12-29T01:40:42;53.55;;;31.50;;
28910;SDS011;16028;42.642;23.310;2022-12-29T01:43:10;59.58;;;32.05;;
28910;SDS011;16028;42.642;23.310;2022-12-29T01:45:40;61.15;;;32.05;;
28910;SDS011;16028;42.642;23.310;2022-12-29T01:48:12;53.78;;;31.70;;
28910;SDS011;16028;42.642;23.310;2022-12-29T01:50:40;60.45;;;32.10;;
28910;SDS011;16028;42.642;23.310;2022-12-29T01:53:13;54.67;;;32.13;;
28910;SDS011;16028;42.642;23.310;2022-12-29T01:55:45;51.30;;;32.28;;
28910;SDS011;16028;42.642;23.310;2022-12-29T01:58:16;52.25;;;31.40;;
28910;SDS011;16028;42.642;23.310;2022-12-29T02:00:46;58.20;;;31.88;;
28910;SDS011;16028;42.642;23.310;2022-12-29T02:03:13;53.42;;;31.42;;
28910;SDS011;16028;42.642;23.310;2022-12-29T02:05:46;56.72;;;33.67;;
28910;SDS011;16028;42.642;23.310;2022-12-29T02:08:20;62.75;;;34.53;;
28910;SDS011;16028;42.642;23.310;2022-12-29T02:10:50;65.53;;;32.47;;
28910;SDS011;16028;42.642;23.310;2022-12-29T02:13:17;55.00;;;33.45;;
28910;SDS011;16028;42.642;23.310;2022-12-29T02:15:47;59.22;;;34.55;;
28910;SDS011;16028;42.642;23.310;2022-12-29T02:18:26;59.42;;;31.70;;
28910;SDS011;16028;42.642;23.310;2022-12-29T02:21:08;64.93;;;33.78;;
28910;SDS011;16028;42.642;23.310;2022-12-29T02:24:11;60.20;;;31.70;;
28910;SDS011;16028;42.642;23.310;2022-12-29T02:27:16;58.63;;;33.88;;
28910;SDS011;16028;42.642;23.310;2022-12-29T02:30:06;56.40;;;32.25;;
28910;SDS011;16028;42.642;23.310;2022-12-29T02:32:41;62.13;;;33.05;;
28910;SDS011;16028;42.642;23.310;2022-12-29T02:35:21;60.47;;;34.28;;
28910;SDS011;16028;42.642;23.310;2022-12-29T02:37:59;57.83;;;33.47;;
28910;SDS011;16028;42.642;23.310;2022-12-29T02:40:39;52.55;;;31.45;;
28910;SDS011;16028;42.642;23.310;2022-12-29T02:43:14;57.45;;;34.92;;
28910;SDS011;16028;42.642;23.310;2022-12-29T02:45:49;56.85;;;34.00;;
28910;SDS011;16028;42.642;23.310;2022-12-29T02:48:23;53.63;;;32.58;;
28910;SDS011;16028;42.642;23.310;2022-12-29T02:50:56;57.80;;;32.55;;
28910;SDS011;16028;42.642;23.310;2022-12-29T02:53:26;61.33;;;32.67;;
28910;SDS011;16028;42.642;23.310;2022-12-29T02:56:12;54.65;;;32.63;;
28910;SDS011;16028;42.642;23.310;2022-12-29T02:58:39;56.95;;;31.98;;
28910;SDS011;16028;42.642;23.310;2022-12-29T03:01:18;56.78;;;32.83;;
28910;SDS011;16028;42.642;23.310;2022-12-29T03:04:02;60.67;;;32.03;;
28910;SDS011;16028;42.642;23.310;2022-12-29T03:06:42;56.97;;;32.30;;
28910;SDS011;16028;42.642;23.310;2022-12-29T03:09:20;56.08;;;33.08;;
28910;SDS011;16028;42.642;23.310;2022-12-29T03:14:38;53.63;;;31.20;;
28910;SDS011;16028;42.642;23.310;2022-12-29T03:17:32;58.33;;;31.48;;
28910;SDS011;16028;42.642;23.310;2022-12-29T03:20:08;50.38;;;30.08;;
28910;SDS011;16028;42.642;23.310;2022-12-29T03:25:10;49.30;;;30.15;;
28910;SDS011;16028;42.642;23.310;2022-12-29T03:27:42;48.50;;;29.67;;
28910;SDS011;16028;42.642;23.310;2022-12-29T03:30:12;57.13;;;32.45;;
28910;SDS011;16028;42.642;23.310;2022-12-29T03:32:40;51.00;;;30.65;;
28910;SDS011;16028;42.642;23.310;2022-12-29T03:35:11;51.90;;;29.55;;
28910;SDS011;16028;42.642;23.310;2022-12-29T03:37:42;51.85;;;29.75;;
28910;SDS011;16028;42.642;23.310;2022-12-29T03:42:42;48.28;;;28.80;;
28910;SDS011;16028;42.642;23.310;2022-12-29T03:45:10;51.05;;;29.08;;
28910;SDS011;16028;42.642;23.310;2022-12-29T03:47:37;51.47;;;30.40;;
28910;SDS011;16028;42.642;23.310;2022-12-29T03:50:04;50.28;;;30.40;;
28910;SDS011;16028;42.642;23.310;2022-12-29T03:52:34;52.50;;;31.98;;
28910;SDS011;16028;42.642;23.310;2022-12-29T03:55:01;52.45;;;31.77;;
28910;SDS011;16028;42.642;23.310;2022-12-29T03:57:30;46.60;;;30.15;;
28910;SDS011;16028;42.642;23.310;2022-12-29T03:59:56;51.75;;;31.45;;
28910;SDS011;16028;42.642;23.310;2022-12-29T04:02:23;54.00;;;32.42;;
28910;SDS011;16028;42.642;23.310;2022-12-29T04:04:50;55.33;;;32.88;;
28910;SDS011;16028;42.642;23.310;2022-12-29T04:07:17;56.70;;;34.63;;
28910;SDS011;16028;42.642;23.310;2022-12-29T04:09:45;54.92;;;34.20;;
28910;SDS011;16028;42.642;23.310;2022-12-29T04:12:12;56.33;;;34.97;;
28910;SDS011;16028;42.642;23.310;2022-12-29T04:14:39;65.78;;;38.15;;
28910;SDS011;16028;42.642;23.310;2022-12-29T04:17:06;62.55;;;36.58;;
28910;SDS011;16028;42.642;23.310;2022-12-29T04:19:33;58.42;;;34.03;;
28910;SDS011;16028;42.642;23.310;2022-12-29T04:21:59;53.65;;;33.22;;
28910;SDS011;16028;42.642;23.310;2022-12-29T04:24:26;60.42;;;34.63;;
28910;SDS011;16028;42.642;23.310;2022-12-29T04:26:54;60.22;;;34.97;;
28910;SDS011;16028;42.642;23.310;2022-12-29T04:29:21;57.90;;;33.72;;
28910;SDS011;16028;42.642;23.310;2022-12-29T04:31:48;57.25;;;34.72;;
28910;SDS011;16028;42.642;23.310;2022-12-29T04:34:15;52.97;;;30.77;;
28910;SDS011;16028;42.642;23.310;2022-12-29T04:36:41;57.17;;;33.22;;
28910;SDS011;16028;42.642;23.310;2022-12-29T04:39:08;56.05;;;34.92;;
28910;SDS011;16028;42.642;23.310;2022-12-29T04:41:38;53.45;;;31.35;;
28910;SDS011;16028;42.642;23.310;2022-12-29T04:44:06;56.13;;;33.70;;
28910;SDS011;16028;42.642;23.310;2022-12-29T04:46:33;58.97;;;36.22;;
28910;SDS011;16028;42.642;23.310;2022-12-29T04:48:59;51.13;;;31.05;;
28910;SDS011;16028;42.642;23.310;2022-12-29T04:51:32;62.30;;;33.45;;
28910;SDS011;16028;42.642;23.310;2022-12-29T04:53:59;62.25;;;34.70;;
28910;SDS011;16028;42.642;23.310;2022-12-29T04:56:26;58.53;;;34.22;;
28910;SDS011;16028;42.642;23.310;2022-12-29T04:58:53;57.80;;;32.95;;
28910;SDS011;16028;42.642;23.310;2022-12-29T05:01:21;52.83;;;34.03;;
28910;SDS011;16028;42.642;23.310;2022-12-29T05:03:49;59.13;;;33.38;;
28910;SDS011;16028;42.642;23.310;2022-12-29T05:06:16;51.33;;;32.08;;
28910;SDS011;16028;42.642;23.310;2022-12-29T05:08:42;51.35;;;31.42;;
28910;SDS011;16028;42.642;23.310;2022-12-29T05:11:09;49.58;;;30.15;;
28910;SDS011;16028;42.642;23.310;2022-12-29T05:13:36;50.00;;;30.00;;
28910;SDS011;16028;42.642;23.310;2022-12-29T05:16:03;50.42;;;30.73;;
28910;SDS011;16028;42.642;23.310;2022-12-29T05:18:31;56.53;;;32.17;;
28910;SDS011;16028;42.642;23.310;2022-12-29T05:20:58;50.58;;;30.05;;
28910;SDS011;16028;42.642;23.310;2022-12-29T05:23:25;50.95;;;31.40;;
28910;SDS011;16028;42.642;23.310;2022-12-29T05:25:52;50.78;;;31.25;;
28910;SDS011;16028;42.642;23.310;2022-12-29T05:28:18;45.70;;;27.50;;
28910;SDS011;16028;42.642;23.310;2022-12-29T05:30:47;58.90;;;32.05;;
28910;SDS011;16028;42.642;23.310;2022-12-29T05:33:14;52.70;;;31.23;;
28910;SDS011;16028;42.642;23.310;2022-12-29T05:35:43;57.30;;;32.85;;
28910;SDS011;16028;42.642;23.310;2022-12-29T05:38:10;65.53;;;32.65;;
28910;SDS011;16028;42.642;23.310;2022-12-29T05:40:37;60.03;;;33.42;;
28910;SDS011;16028;42.642;23.310;2022-12-29T05:43:03;60.05;;;32.47;;
28910;SDS011;16028;42.642;23.310;2022-12-29T05:45:30;60.30;;;33.75;;
28910;SDS011;16028;42.642;23.310;2022-12-29T05:47:57;56.05;;;33.47;;
28910;SDS011;16028;42.642;23.310;2022-12-29T05:50:24;56.83;;;33.92;;
28910;SDS011;16028;42.642;23.310;2022-12-29T05:52:52;61.25;;;35.05;;
28910;SDS011;16028;42.642;23.310;2022-12-29T05:55:18;65.15;;;37.53;;
28910;SDS011;16028;42.642;23.310;2022-12-29T05:57:45;61.92;;;35.38;;
28910;SDS011;16028;42.642;23.310;2022-12-29T06:00:12;63.25;;;35.15;;
28910;SDS011;16028;42.642;23.310;2022-12-29T06:02:41;63.67;;;35.75;;
28910;SDS011;16028;42.642;23.310;2022-12-29T06:05:08;54.58;;;34.17;;
28910;SDS011;16028;42.642;23.310;2022-12-29T06:07:35;55.63;;;35.70;;
28910;SDS011;16028;42.642;23.310;2022-12-29T06:10:04;64.50;;;36.22;;
28910;SDS011;16028;42.642;23.310;2022-12-29T06:12:31;60.83;;;34.58;;
28910;SDS011;16028;42.642;23.310;2022-12-29T06:14:58;60.03;;;33.30;;
28910;SDS011;16028;42.642;23.310;2022-12-29T06:17:25;58.00;;;33.88;;
28910;SDS011;16028;42.642;23.310;2022-12-29T06:19:53;54.30;;;33.40;;
28910;SDS011;16028;42.642;23.310;2022-12-29T06:22:26;53.33;;;31.85;;
28910;SDS011;16028;42.642;23.310;2022-12-29T06:24:53;48.20;;;28.38;;
28910;SDS011;16028;42.642;23.310;2022-12-29T06:27:21;54.80;;;31.35;;
28910;SDS011;16028;42.642;23.310;2022-12-29T06:29:48;53.38;;;31.30;;
28910;SDS011;16028;42.642;23.310;2022-12-29T06:32:15;53.13;;;32.20;;
28910;SDS011;16028;42.642;23.310;2022-12-29T06:34:41;53.88;;;32.40;;
28910;SDS011;16028;42.642;23.310;2022-12-29T06:37:09;47.38;;;30.48;;
28910;SDS011;16028;42.642;23.310;2022-12-29T06:39:36;49.08;;;30.48;;
28910;SDS011;16028;42.642;23.310;2022-12-29T06:42:03;49.60;;;29.60;;
28910;SDS011;16028;42.642;23.310;2022-12-29T06:44:32;47.38;;;28.50;;
28910;SDS011;16028;42.642;23.310;2022-12-29T06:46:58;50.50;;;29.70;;
28910;SDS011;16028;42.642;23.310;2022-12-29T06:49:25;56.75;;;31.50;;
28910;SDS011;16028;42.642;23.310;2022-12-29T06:51:52;51.58;;;30.65;;
28910;SDS011;16028;42.642;23.310;2022-12-29T06:54:19;51.58;;;30.63;;
28910;SDS011;16028;42.642;23.310;2022-12-29T06:56:45;47.83;;;30.98;;
28910;SDS011;16028;42.642;23.310;2022-12-29T06:59:12;54.22;;;32.47;;
28910;SDS011;16028;42.642;23.310;2022-12-29T07:01:40;53.78;;;33.33;;
28910;SDS011;16028;42.642;23.310;2022-12-29T07:04:10;56.05;;;31.98;;
28910;SDS011;16028;42.642;23.310;2022-12-29T07:06:37;53.47;;;31.23;;
28910;SDS011;16028;42.642;23.310;2022-12-29T07:09:05;54.35;;;32.13;;
28910;SDS011;16028;42.642;23.310;2022-12-29T07:11:32;60.03;;;34.60;;
28910;SDS011;16028;42.642;23.310;2022-12-29T07:14:01;49.53;;;30.67;;
28910;SDS011;16028;42.642;23.310;2022-12-29T07:16:28;53.75;;;31.20;;
28910;SDS011;16028;42.642;23.310;2022-12-29T07:18:56;50.65;;;29.20;;
28910;SDS011;16028;42.642;23.310;2022-12-29T07:21:24;53.47;;;32.67;;
28910;SDS011;16028;42.642;23.310;2022-12-29T07:23:51;48.92;;;31.02;;
28910;SDS011;16028;42.642;23.310;2022-12-29T07:26:18;55.90;;;32.80;;
28910;SDS011;16028;42.642;23.310;2022-12-29T07:28:44;63.40;;;33.35;;
28910;SDS011;16028;42.642;23.310;2022-12-29T07:31:12;53.25;;;32.28;;
28910;SDS011;16028;42.642;23.310;2022-12-29T07:33:47;50.20;;;30.95;;
28910;SDS011;16028;42.642;23.310;2022-12-29T07:36:16;48.78;;;31.05;;
28910;SDS011;16028;42.642;23.310;2022-12-29T07:38:42;51.95;;;32.90;;
28910;SDS011;16028;42.642;23.310;2022-12-29T07:41:12;51.08;;;31.92;;
28910;SDS011;16028;42.642;23.310;2022-12-29T07:43:39;60.17;;;32.85;;
28910;SDS011;16028;42.642;23.310;2022-12-29T07:46:05;54.33;;;31.90;;
28910;SDS011;16028;42.642;23.310;2022-12-29T07:48:34;56.25;;;32.60;;
28910;SDS011;16028;42.642;23.310;2022-12-29T07:51:01;54.00;;;32.60;;
28910;SDS011;16028;42.642;23.310;2022-12-29T07:53:29;56.58;;;32.83;;
28910;SDS011;16028;42.642;23.310;2022-12-29T07:55:55;58.88;;;31.00;;
28910;SDS011;16028;42.642;23.310;2022-12-29T07:58:22;51.05;;;31.50;;
28910;SDS011;16028;42.642;23.310;2022-12-29T08:00:52;52.00;;;31.92;;
28910;SDS011;16028;42.642;23.310;2022-12-29T08:03:19;52.17;;;32.38;;
28910;SDS011;16028;42.642;23.310;2022-12-29T08:05:46;51.95;;;32.03;;
28910;SDS011;16028;42.642;23.310;2022-12-29T08:08:13;50.40;;;31.88;;
28910;SDS011;16028;42.642;23.310;2022-12-29T08:10:41;52.97;;;32.80;;
28910;SDS011;16028;42.642;23.310;2022-12-29T08:13:08;52.22;;;31.98;;
28910;SDS011;16028;42.642;23.310;2022-12-29T08:15:35;55.20;;;31.38;;
28910;SDS011;16028;42.642;23.310;2022-12-29T08:18:03;52.40;;;32.50;;
28910;SDS011;16028;42.642;23.310;2022-12-29T08:20:31;57.30;;;32.78;;
28910;SDS011;16028;42.642;23.310;2022-12-29T08:22:58;57.45;;;30.88;;
28910;SDS011;16028;42.642;23.310;2022-12-29T08:25:24;51.85;;;30.60;;
28910;SDS011;16028;42.642;23.310;2022-12-29T08:27:52;52.15;;;31.20;;
28910;SDS011;16028;42.642;23.310;2022-12-29T08:30:19;48.67;;;31.48;;
28910;SDS011;16028;42.642;23.310;2022-12-29T08:32:46;54.17;;;31.80;;
28910;SDS011;16028;42.642;23.310;2022-12-29T08:35:13;53.15;;;30.48;;
28910;SDS011;16028;42.642;23.310;2022-12-29T08:37:39;55.85;;;32.85;;
28910;SDS011;16028;42.642;23.310;2022-12-29T08:40:09;54.53;;;33.38;;
28910;SDS011;16028;42.642;23.310;2022-12-29T08:42:36;55.25;;;32.15;;
28910;SDS011;16028;42.642;23.310;2022-12-29T08:45:07;53.65;;;33.25;;
28910;SDS011;16028;42.642;23.310;2022-12-29T08:47:35;61.05;;;33.80;;
28910;SDS011;16028;42.642;23.310;2022-12-29T08:50:01;52.33;;;32.85;;
28910;SDS011;16028;42.642;23.310;2022-12-29T08:52:28;56.63;;;33.65;;
28910;SDS011;16028;42.642;23.310;2022-12-29T08:54:55;49.20;;;31.85;;
28910;SDS011;16028;42.642;23.310;2022-12-29T08:57:22;53.50;;;33.22;;
28910;SDS011;16028;42.642;23.310;2022-12-29T08:59:49;55.58;;;30.30;;
28910;SDS011;16028;42.642;23.310;2022-12-29T09:02:17;51.13;;;30.70;;
28910;SDS011;16028;42.642;23.310;2022-12-29T09:04:43;51.13;;;31.20;;
28910;SDS011;16028;42.642;23.310;2022-12-29T09:07:10;57.20;;;30.38;;
28910;SDS011;16028;42.642;23.310;2022-12-29T09:09:37;54.22;;;33.10;;
28910;SDS011;16028;42.642;23.310;2022-12-29T09:12:05;57.15;;;35.42;;
28910;SDS011;16028;42.642;23.310;2022-12-29T09:14:32;59.22;;;36.88;;
28910;SDS011;16028;42.642;23.310;2022-12-29T09:16:59;58.92;;;34.47;;
28910;SDS011;16028;42.642;23.310;2022-12-29T09:19:44;56.67;;;34.30;;
28910;SDS011;16028;42.642;23.310;2022-12-29T09:22:11;55.00;;;35.17;;
28910;SDS011;16028;42.642;23.310;2022-12-29T09:24:38;57.17;;;33.80;;
28910;SDS011;16028;42.642;23.310;2022-12-29T09:27:05;55.47;;;33.85;;
28910;SDS011;16028;42.642;23.310;2022-12-29T09:29:31;56.78;;;33.75;;
28910;SDS011;16028;42.642;23.310;2022-12-29T09:31:58;56.05;;;34.40;;
28910;SDS011;16028;42.642;23.310;2022-12-29T09:34:25;57.63;;;34.75;;
28910;SDS011;16028;42.642;23.310;2022-12-29T09:36:53;54.65;;;34.88;;
28910;SDS011;16028;42.642;23.310;2022-12-29T09:39:21;55.00;;;33.58;;
28910;SDS011;16028;42.642;23.310;2022-12-29T09:41:49;53.08;;;32.92;;
28910;SDS011;16028;42.642;23.310;2022-12-29T09:44:26;55.35;;;33.45;;
28910;SDS011;16028;42.642;23.310;2022-12-29T09:47:07;57.03;;;33.28;;
28910;SDS011;16028;42.642;23.310;2022-12-29T09:49:39;53.75;;;31.65;;
28910;SDS011;16028;42.642;23.310;2022-12-29T09:52:13;55.97;;;34.58;;
28910;SDS011;16028;42.642;23.310;2022-12-29T09:54:45;51.75;;;32.72;;
28910;SDS011;16028;42.642;23.310;2022-12-29T09:57:19;61.13;;;35.40;;
28910;SDS011;16028;42.642;23.310;2022-12-29T09:59:50;59.85;;;35.08;;
28910;SDS011;16028;42.642;23.310;2022-12-29T10:02:32;61.08;;;33.50;;
28910;SDS011;16028;42.642;23.310;2022-12-29T10:05:03;55.85;;;33.45;;
28910;SDS011;16028;42.642;23.310;2022-12-29T10:07:42;53.70;;;34.30;;
28910;SDS011;16028;42.642;23.310;2022-12-29T10:10:16;57.90;;;35.80;;
28910;SDS011;16028;42.642;23.310;2022-12-29T10:12:57;59.08;;;37.00;;
28910;SDS011;16028;42.642;23.310;2022-12-29T10:15:36;57.33;;;36.53;;
28910;SDS011;16028;42.642;23.310;2022-12-29T10:21:05;59.40;;;36.97;;
28910;SDS011;16028;42.642;23.310;2022-12-29T10:23:42;60.92;;;37.05;;
28910;SDS011;16028;42.642;23.310;2022-12-29T10:26:15;55.88;;;35.10;;
28910;SDS011;16028;42.642;23.310;2022-12-29T10:28:45;54.75;;;35.15;;
28910;SDS011;16028;42.642;23.310;2022-12-29T10:31:16;61.05;;;35.80;;
28910;SDS011;16028;42.642;23.310;2022-12-29T10:33:48;56.22;;;36.80;;
28910;SDS011;16028;42.642;23.310;2022-12-29T10:36:19;55.25;;;34.90;;
28910;SDS011;16028;42.642;23.310;2022-12-29T10:38:54;56.55;;;36.00;;
28910;SDS011;16028;42.642;23.310;2022-12-29T10:41:28;59.13;;;34.47;;
28910;SDS011;16028;42.642;23.310;2022-12-29T10:44:02;60.08;;;34.97;;
28910;SDS011;16028;42.642;23.310;2022-12-29T10:46:30;64.03;;;38.83;;
28910;SDS011;16028;42.642;23.310;2022-12-29T10:49:01;60.97;;;37.95;;
28910;SDS011;16028;42.642;23.310;2022-12-29T10:51:29;58.38;;;36.75;;
28910;SDS011;16028;42.642;23.310;2022-12-29T10:54:02;62.97;;;36.63;;
28910;SDS011;16028;42.642;23.310;2022-12-29T10:56:33;57.80;;;37.17;;
28910;SDS011;16028;42.642;23.310;2022-12-29T10:59:03;61.88;;;37.00;;
28910;SDS011;16028;42.642;23.310;2022-12-29T11:01:39;54.38;;;35.58;;
28910;SDS011;16028;42.642;23.310;2022-12-29T11:04:15;61.05;;;35.85;;
28910;SDS011;16028;42.642;23.310;2022-12-29T11:06:57;53.47;;;34.97;;
28910;SDS011;16028;42.642;23.310;2022-12-29T11:09:28;54.90;;;33.42;;
28910;SDS011;16028;42.642;23.310;2022-12-29T11:11:57;58.78;;;34.25;;
28910;SDS011;16028;42.642;23.310;2022-12-29T11:14:26;61.55;;;36.95;;
28910;SDS011;16028;42.642;23.310;2022-12-29T11:16:57;57.42;;;34.33;;
28910;SDS011;16028;42.642;23.310;2022-12-29T11:19:26;54.25;;;33.28;;
28910;SDS011;16028;42.642;23.310;2022-12-29T11:21:54;54.28;;;34.70;;
28910;SDS011;16028;42.642;23.310;2022-12-29T11:24:22;61.00;;;34.78;;
28910;SDS011;16028;42.642;23.310;2022-12-29T11:26:51;54.88;;;33.13;;
28910;SDS011;16028;42.642;23.310;2022-12-29T11:29:26;55.72;;;32.35;;
28910;SDS011;16028;42.642;23.310;2022-12-29T11:31:54;51.55;;;32.78;;
28910;SDS011;16028;42.642;23.310;2022-12-29T11:34:24;56.38;;;33.83;;
28910;SDS011;16028;42.642;23.310;2022-12-29T11:36:53;55.83;;;33.70;;
28910;SDS011;16028;42.642;23.310;2022-12-29T11:39:29;58.88;;;33.92;;
28910;SDS011;16028;42.642;23.310;2022-12-29T11:42:01;57.47;;;33.45;;
28910;SDS011;16028;42.642;23.310;2022-12-29T11:44:30;53.28;;;33.42;;
28910;SDS011;16028;42.642;23.310;2022-12-29T11:47:03;53.35;;;33.50;;
28910;SDS011;16028;42.642;23.310;2022-12-29T11:49:33;55.10;;;32.92;;
28910;SDS011;16028;42.642;23.310;2022-12-29T11:52:00;57.55;;;33.92;;
28910;SDS011;16028;42.642;23.310;2022-12-29T11:54:27;68.45;;;34.97;;
28910;SDS011;16028;42.642;23.310;2022-12-29T11:56:58;64.25;;;34.30;;
28910;SDS011;16028;42.642;23.310;2022-12-29T11:59:40;54.63;;;32.05;;
28910;SDS011;16028;42.642;23.310;2022-12-29T12:05:01;54.15;;;31.80;;
28910;SDS011;16028;42.642;23.310;2022-12-29T12:07:37;55.13;;;31.70;;
28910;SDS011;16028;42.642;23.310;2022-12-29T12:10:10;50.65;;;31.38;;
28910;SDS011;16028;42.642;23.310;2022-12-29T12:12:47;51.20;;;31.52;;
28910;SDS011;16028;42.642;23.310;2022-12-29T12:15:19;49.78;;;31.88;;
28910;SDS011;16028;42.642;23.310;2022-12-29T12:17:49;51.17;;;31.27;;
28910;SDS011;16028;42.642;23.310;2022-12-29T12:20:20;53.83;;;32.53;;
28910;SDS011;16028;42.642;23.310;2022-12-29T12:22:51;55.35;;;32.65;;
28910;SDS011;16028;42.642;23.310;2022-12-29T12:25:26;54.33;;;33.42;;
28910;SDS011;16028;42.642;23.310;2022-12-29T12:28:00;51.40;;;32.83;;
28910;SDS011;16028;42.642;23.310;2022-12-29T12:30:36;52.67;;;32.35;;
28910;SDS011;16028;42.642;23.310;2022-12-29T12:33:11;55.97;;;33.35;;
28910;SDS011;16028;42.642;23.310;2022-12-29T12:35:47;57.80;;;32.50;;
28910;SDS011;16028;42.642;23.310;2022-12-29T12:38:25;52.08;;;32.05;;
28910;SDS011;16028;42.642;23.310;2022-12-29T12:41:05;48.63;;;31.25;;
28910;SDS011;16028;42.642;23.310;2022-12-29T12:43:42;49.92;;;30.17;;
28910;SDS011;16028;42.642;23.310;2022-12-29T12:46:17;51.10;;;31.30;;
28910;SDS011;16028;42.642;23.310;2022-12-29T12:49:01;59.35;;;31.08;;
28910;SDS011;16028;42.642;23.310;2022-12-29T12:51:45;50.78;;;30.27;;
28910;SDS011;16028;42.642;23.310;2022-12-29T12:54:25;49.28;;;30.95;;
28910;SDS011;16028;42.642;23.310;2022-12-29T12:57:09;54.88;;;32.45;;
28910;SDS011;16028;42.642;23.310;2022-12-29T12:59:48;55.70;;;32.30;;
28910;SDS011;16028;42.642;23.310;2022-12-29T13:02:28;59.10;;;33.22;;
28910;SDS011;16028;42.642;23.310;2022-12-29T13:05:09;56.63;;;31.63;;
28910;SDS011;16028;42.642;23.310;2022-12-29T13:07:52;48.55;;;31.27;;
28910;SDS011;16028;42.642;23.310;2022-12-29T13:10:33;59.67;;;35.33;;
28910;SDS011;16028;42.642;23.310;2022-12-29T13:13:17;53.10;;;32.90;;
28910;SDS011;16028;42.642;23.310;2022-12-29T13:16:05;54.92;;;33.95;;
28910;SDS011;16028;42.642;23.310;2022-12-29T13:18:44;57.08;;;34.55;;
28910;SDS011;16028;42.642;23.310;2022-12-29T13:21:17;56.00;;;33.92;;
28910;SDS011;16028;42.642;23.310;2022-12-29T13:23:53;61.95;;;35.40;;
28910;SDS011;16028;42.642;23.310;2022-12-29T13:26:28;57.08;;;35.35;;
28910;SDS011;16028;42.642;23.310;2022-12-29T13:28:59;59.88;;;35.53;;
28910;SDS011;16028;42.642;23.310;2022-12-29T13:31:36;60.03;;;36.33;;
28910;SDS011;16028;42.642;23.310;2022-12-29T13:34:11;62.08;;;37.58;;
28910;SDS011;16028;42.642;23.310;2022-12-29T13:36:48;61.13;;;35.65;;
28910;SDS011;16028;42.642;23.310;2022-12-29T13:39:21;66.22;;;38.13;;
28910;SDS011;16028;42.642;23.310;2022-12-29T13:41:51;62.42;;;38.05;;
28910;SDS011;16028;42.642;23.310;2022-12-29T13:44:21;63.55;;;34.78;;
28910;SDS011;16028;42.642;23.310;2022-12-29T13:46:54;59.05;;;34.42;;
28910;SDS011;16028;42.642;23.310;2022-12-29T13:49:25;58.65;;;35.97;;
28910;SDS011;16028;42.642;23.310;2022-12-29T13:51:53;59.80;;;36.17;;
28910;SDS011;16028;42.642;23.310;2022-12-29T13:54:25;58.38;;;36.17;;
28910;SDS011;16028;42.642;23.310;2022-12-29T13:57:02;61.42;;;35.70;;
28910;SDS011;16028;42.642;23.310;2022-12-29T13:59:44;59.92;;;35.00;;
28910;SDS011;16028;42.642;23.310;2022-12-29T14:02:21;56.38;;;35.88;;
28910;SDS011;16028;42.642;23.310;2022-12-29T14:04:58;61.85;;;35.70;;
28910;SDS011;16028;42.642;23.310;2022-12-29T14:07:27;61.88;;;36.63;;
28910;SDS011;16028;42.642;23.310;2022-12-29T14:09:55;63.58;;;37.28;;
28910;SDS011;16028;42.642;23.310;2022-12-29T14:12:32;55.20;;;33.70;;
28910;SDS011;16028;42.642;23.310;2022-12-29T14:15:14;62.67;;;35.95;;
28910;SDS011;16028;42.642;23.310;2022-12-29T14:18:01;63.05;;;35.05;;
28910;SDS011;16028;42.642;23.310;2022-12-29T14:20:31;70.15;;;37.38;;
28910;SDS011;16028;42.642;23.310;2022-12-29T14:22:59;65.63;;;37.70;;
28910;SDS011;16028;42.642;23.310;2022-12-29T14:28:22;60.33;;;34.75;;
28910;SDS011;16028;42.642;23.310;2022-12-29T14:30:50;51.92;;;32.47;;
28910;SDS011;16028;42.642;23.310;2022-12-29T14:33:21;57.30;;;34.00;;
28910;SDS011;16028;42.642;23.310;2022-12-29T14:35:50;60.65;;;33.92;;
28910;SDS011;16028;42.642;23.310;2022-12-29T14:38:30;54.70;;;34.50;;
28910;SDS011;16028;42.642;23.310;2022-12-29T14:43:52;53.00;;;33.70;;
28910;SDS011;16028;42.642;23.310;2022-12-29T14:46:21;57.03;;;34.75;;
28910;SDS011;16028;42.642;23.310;2022-12-29T14:48:52;73.40;;;39.10;;
28910;SDS011;16028;42.642;23.310;2022-12-29T14:51:28;67.45;;;38.92;;